ADDS METAR Data INFO
IDs: Format: Raw Decoded Include TAF

Data at: 2315 UTC 15 Jul 2018

KIMT 152254Z AUTO 22007KT 10SM FEW060 FEW075 31/18 A2990 RMK AO2 SLP119 T03110178 $
KIMT 152154Z AUTO 20007KT 170V230 10SM CLR 32/18 A2991 RMK AO2 SLP122 T03170178 $
KIMT 152054Z AUTO 20006KT 10SM CLR 32/17 A2992 RMK AO2 SLP125 T03170167 56017 $
KIMT 151954Z AUTO 19006KT 10SM FEW070 32/15 A2993 RMK AO2 SLP130 T03220150 $
KIMT 151854Z AUTO 25006KT 10SM FEW065 32/15 A2995 RMK AO2 SLP136 T03170150 $
KIMT 151754Z AUTO VRB06KT 10SM CLR 31/15 A2997 RMK AO2 SLP142 T03110150 10317 20194 58003 $
KIMT 151654Z AUTO 17004KT 10SM CLR 31/17 A2998 RMK AO2 SLP145 T03060172 $
KIMT 151554Z AUTO 19005KT 10SM CLR 30/17 A2998 RMK AO2 SLP145 T03000167 $
KIMT 151454Z AUTO 19005KT 10SM CLR 28/19 A2998 RMK AO2 SLP144 T02830189 58007 $
KIMT 151354Z AUTO VRB03KT 10SM CLR 26/19 A2998 RMK AO2 SLP148 T02610194 $
KIMT 151254Z AUTO 00000KT 10SM CLR 23/19 A3000 RMK AO2 SLP153 T02280189 $
KIMT 151154Z AUTO 00000KT 8SM CLR 19/18 A3000 RMK AO2 SLP152 T01940183 10194 20161 58004 $
KIMT 151105Z AUTO 00000KT 3SM BR CLR 17/16 A3000 RMK AO2 T01720161 $
KIMT 151103Z AUTO 00000KT 1 1/4SM BR CLR 17/16 A3001 RMK AO2 T01720161 $
KIMT 151054Z AUTO 00000KT 1/4SM FG CLR 17/16 A3000 RMK AO2 SLP155 T01670156 $
KIMT 151045Z AUTO 00000KT 3/4SM BR CLR 17/16 A3001 RMK AO2 T01670156 $
KIMT 151039Z AUTO 00000KT 5SM BR CLR 16/16 A3000 RMK AO2 T01610156 $
KIMT 151002Z AUTO 00000KT 2 1/2SM BR CLR 17/16 A3001 RMK AO2 T01670161 $
KIMT 150954Z AUTO 19003KT 3SM BR CLR 17/16 A3001 RMK AO2 SLP156 T01670161 $
KIMT 150854Z AUTO 00000KT 5SM BR CLR 17/16 A3001 RMK AO2 SLP156 T01720161 56007 $
KIMT 150847Z AUTO 00000KT 2 1/2SM BR CLR 17/16 A3001 RMK AO2 VIS 1V5 T01720161 $
KIMT 150841Z AUTO 00000KT 1/2SM FG CLR 17/16 A3001 RMK AO2 T01720161 $
KIMT 150834Z AUTO 00000KT 1 1/4SM BR CLR 17/16 A3001 RMK AO2 T01670156 $
KIMT 150754Z AUTO 00000KT 7SM CLR 17/16 A3002 RMK AO2 SLP159 T01670161 $
KIMT 150654Z AUTO 00000KT 9SM CLR 19/17 A3002 RMK AO2 SLP160 T01890172 $
KIMT 150554Z AUTO 00000KT 10SM CLR 19/17 A3003 RMK AO2 SLP164 T01940172 10294 20194 403170150 53008 $
KIMT 150454Z AUTO 00000KT 10SM CLR 21/18 A3002 RMK AO2 SLP161 T02110183 $
KIMT 150354Z AUTO 14003KT 10SM CLR 22/19 A3001 RMK AO2 SLP156 T02220194 $
KIMT 150254Z AUTO 00000KT 10SM CLR 23/19 A3001 RMK AO2 SLP156 T02280194 52007 $
KIMT 150154Z AUTO 00000KT 10SM CLR 24/19 A3000 RMK AO2 SLP154 T02390194 $
KIMT 150054Z AUTO 18004KT 10SM CLR 27/19 A2999 RMK AO2 SLP151 T02720189 $
KIMT 142354Z AUTO 17005KT 10SM CLR 29/16 A2999 RMK AO2 SLP149 T02940156 10317 20294 56008 $
KIMT 142254Z AUTO 24003KT 10SM CLR 31/14 A2999 RMK AO2 SLP151 T03060144 $
KIMT 142154Z AUTO VRB05KT 10SM CLR 31/14 A3000 RMK AO2 SLP155 T03110144 $
KIMT 142054Z AUTO 00000KT 10SM CLR 31/14 A3001 RMK AO2 SLP158 T03060139 58010 $
KIMT 141954Z AUTO VRB04KT 10SM BKN065 31/14 A3003 RMK AO2 SLP163 T03060139 $
KIMT 141854Z AUTO 08003KT 10SM CLR 30/14 A3004 RMK AO2 SLP167 T03000144 $
KIMT 141754Z AUTO 00000KT 10SM SCT065 29/14 A3004 RMK AO2 SLP168 T02940139 10294 20189 55002 $
KIMT 141654Z AUTO VRB04KT 10SM FEW050 28/16 A3004 RMK AO2 SLP167 T02830161 $
KIMT 141554Z AUTO 00000KT 10SM CLR 28/17 A3005 RMK AO2 SLP169 T02830172 $
KIMT 141454Z AUTO 00000KT 10SM CLR 27/19 A3005 RMK AO2 SLP171 T02670194 57001 $
KIMT 141354Z AUTO 32003KT 10SM CLR 24/20 A3005 RMK AO2 SLP172 T02440200 $
KIMT 141254Z AUTO 34003KT 10SM CLR 21/19 A3005 RMK AO2 SLP172 T02110189 $
KIMT 141154Z AUTO 00000KT 8SM CLR 19/18 A3005 RMK AO2 SLP173 T01890178 10189 20150 53008 $
KIMT 141125Z AUTO 00000KT 3SM BR CLR 17/17 A3005 RMK AO2 T01720167 $
KIMT 141119Z AUTO 35003KT 1 3/4SM BR CLR 17/16 A3004 RMK AO2 VIS 1V2 1/2 T01670156 $